Fremont, Kentucky
Current Conditions -  °F | °C
As of 7:53 PM on Friday 19 Dec 2014 (Local Time) from KPAH Reporting Station
Overcast Overcast  
Wind Chill: 30°   Ceiling: 8000
Heat Index: 37°   Visibility: 10mi
Dew Point: 27°   Wind: 9mph
Humidity: 67%   Direction: 60°ENE
Pressure: 30.24"   Gusts: NA
Location:  37.0331°N, 88.716°W
Report Text: KPAH 200153Z 06008KT 10SM OVC080 03/M03 A3024 RMK AO2 SLP243 T00281028
Loading
Personal Weather Stations






























Interactive Weather Map New forecast layout! Learn more

10-Day Weather Forecast

Advertisements
Track Severe Weather on mobile